Time;durP1;ratioP1;P1;durP2;ratioP2;P2;SDS_P1;SDS_P2;PMS_P1;PMS_P2;Temp;Humidity;BMP_temperature;BMP_pressure;BME280_temperature;BME280_humidity;BME280_pressure;Samples;Min_cycle;Max_cycle;Signal;HPM_P1;HPM_P2
2024/01/02 00:01:31;;;;;;;1.45;0.80;;;13.70;95.60;;;;;;5094488;28;20022;-45
2024/01/02 00:03:57;;;;;;;2.00;1.00;;;13.60;95.70;;;;;;5095124;28;20457;-44
2024/01/02 00:06:23;;;;;;;2.45;1.10;;;13.60;95.80;;;;;;5094907;28;20030;-44
2024/01/02 00:08:48;;;;;;;2.63;1.13;;;13.60;95.90;;;;;;5094299;28;20036;-44
2024/01/02 00:11:14;;;;;;;2.97;0.90;;;13.50;95.90;;;;;;5094617;28;20111;-44
2024/01/02 00:13:39;;;;;;;2.08;0.90;;;13.50;96.00;;;;;;5094275;28;20051;-44
2024/01/02 00:16:05;;;;;;;3.92;1.17;;;13.40;96.00;;;;;;5094391;28;20032;-44
2024/01/02 00:18:31;;;;;;;2.70;1.05;;;13.40;96.10;;;;;;5093470;28;20055;-44
2024/01/02 00:20:57;;;;;;;2.35;0.98;;;13.40;96.10;;;;;;5093663;28;20059;-44
2024/01/02 00:23:22;;;;;;;1.33;0.82;;;13.30;96.20;;;;;;5094183;28;20038;-44
2024/01/02 00:25:48;;;;;;;2.33;1.00;;;13.30;96.20;;;;;;5094998;28;20032;-44
2024/01/02 00:28:14;;;;;;;2.85;0.95;;;13.30;96.30;;;;;;5094034;28;20039;-45
2024/01/02 00:30:40;;;;;;;1.77;0.90;;;13.20;96.30;;;;;;5093822;28;20024;-45
2024/01/02 00:33:06;;;;;;;1.67;0.90;;;13.20;96.40;;;;;;5093904;28;20491;-44
2024/01/02 00:35:33;;;;;;;2.42;0.88;;;13.10;96.40;;;;;;5093736;28;20500;-44
2024/01/02 00:38:00;;;;;;;0.93;0.70;;;13.10;96.50;;;;;;5093253;28;20466;-45
2024/01/02 00:40:25;;;;;;;2.25;0.75;;;13.00;96.50;;;;;;5094167;28;20663;-45
2024/01/02 00:42:51;;;;;;;2.30;0.82;;;13.10;96.60;;;;;;5093101;28;20525;-45
2024/01/02 00:45:17;;;;;;;2.75;1.00;;;13.00;96.70;;;;;;5094377;28;20024;-45
2024/01/02 00:47:42;;;;;;;0.82;0.52;;;12.90;96.70;;;;;;5092895;28;20020;-44
2024/01/02 00:50:09;;;;;;;1.58;0.90;;;12.90;96.70;;;;;;5093661;28;20024;-44
2024/01/02 00:52:35;;;;;;;2.05;1.00;;;12.90;96.80;;;;;;5093651;28;20026;-45
2024/01/02 00:55:04;;;;;;;2.92;1.00;;;12.90;96.80;;;;;;5092754;28;20103;-44
2024/01/02 00:57:30;;;;;;;2.13;0.80;;;12.90;96.90;;;;;;5093355;28;20035;-44
2024/01/02 00:59:57;;;;;;;1.70;0.95;;;12.80;96.90;;;;;;5093933;28;20490;-45
2024/01/02 01:02:23;;;;;;;1.00;0.60;;;12.80;97.00;;;;;;5093509;28;20028;-45
2024/01/02 01:04:48;;;;;;;2.65;0.90;;;12.80;97.00;;;;;;5094087;28;20496;-44
2024/01/02 01:07:14;;;;;;;3.42;1.00;;;12.80;97.10;;;;;;5093929;28;20027;-44
2024/01/02 01:09:40;;;;;;;2.22;1.00;;;12.70;97.10;;;;;;5093406;28;20115;-44
2024/01/02 01:12:06;;;;;;;2.45;0.80;;;12.70;97.10;;;;;;5092908;28;20030;-45
2024/01/02 01:14:32;;;;;;;1.45;0.60;;;12.70;97.10;;;;;;5092444;28;20024;-44
2024/01/02 01:16:58;;;;;;;1.92;0.90;;;12.70;97.20;;;;;;5094023;28;20024;-44
2024/01/02 01:19:24;;;;;;;1.63;0.80;;;12.60;97.20;;;;;;5093256;28;20107;-45
2024/01/02 01:21:50;;;;;;;1.75;0.80;;;12.60;97.20;;;;;;5092396;28;20077;-44
2024/01/02 01:24:15;;;;;;;1.90;0.98;;;12.60;97.30;;;;;;5092162;28;20077;-44
2024/01/02 01:26:41;;;;;;;1.05;0.77;;;12.60;97.30;;;;;;5092571;28;20059;-44
2024/01/02 01:29:06;;;;;;;2.00;0.80;;;12.60;97.40;;;;;;5091974;28;20035;-44
2024/01/02 01:31:32;;;;;;;1.48;0.60;;;12.60;97.40;;;;;;5092435;28;20480;-44
2024/01/02 01:33:58;;;;;;;2.17;0.60;;;12.50;97.40;;;;;;5093252;28;20024;-44
2024/01/02 01:36:24;;;;;;;1.55;0.70;;;12.50;97.40;;;;;;5093121;28;20063;-45
2024/01/02 01:38:49;;;;;;;2.30;0.75;;;12.50;97.50;;;;;;5092859;28;20053;-44
2024/01/02 01:41:15;;;;;;;1.55;0.70;;;12.50;97.50;;;;;;5092877;28;20032;-45
2024/01/02 01:43:40;;;;;;;1.80;0.90;;;12.40;97.50;;;;;;5093142;28;20267;-44
2024/01/02 01:46:07;;;;;;;1.75;0.68;;;12.50;97.60;;;;;;5093013;28;20040;-44
2024/01/02 01:48:34;;;;;;;1.52;0.60;;;12.40;97.60;;;;;;5091884;28;20386;-44
2024/01/02 01:51:00;;;;;;;1.98;0.90;;;12.40;97.60;;;;;;5092822;28;20020;-44
2024/01/02 01:53:26;;;;;;;1.75;0.55;;;12.40;97.60;;;;;;5091689;28;20032;-44
2024/01/02 01:55:53;;;;;;;1.10;0.60;;;12.40;97.70;;;;;;5091671;28;20477;-44
2024/01/02 01:58:19;;;;;;;1.08;0.55;;;12.40;97.70;;;;;;5092019;28;20056;-45
2024/01/02 02:00:45;;;;;;;0.77;0.47;;;12.40;97.70;;;;;;5091688;28;20020;-44
2024/01/02 02:03:12;;;;;;;0.70;0.57;;;12.30;97.70;;;;;;5091463;28;20032;-45
2024/01/02 02:05:38;;;;;;;1.08;0.70;;;12.30;97.80;;;;;;5092428;28;20028;-45
2024/01/02 02:08:04;;;;;;;2.42;0.82;;;12.30;97.80;;;;;;5092032;28;20020;-43
2024/01/02 02:10:30;;;;;;;1.65;0.85;;;12.30;97.80;;;;;;5091943;28;20129;-44
2024/01/02 02:12:59;;;;;;;1.98;0.60;;;12.30;97.90;;;;;;5091851;28;20031;-44
2024/01/02 02:15:24;;;;;;;0.90;0.50;;;12.30;97.90;;;;;;5092237;28;20030;-45
2024/01/02 02:17:50;;;;;;;1.10;0.70;;;12.30;97.90;;;;;;5091676;28;20095;-44
2024/01/02 02:20:15;;;;;;;1.00;0.60;;;12.30;97.90;;;;;;5091430;28;20470;-45
2024/01/02 02:22:49;;;;;;;3.40;0.80;;;12.20;98.00;;;;;;5092646;28;20330;-45
2024/01/02 02:25:16;;;;;;;1.35;0.65;;;12.20;98.00;;;;;;5092760;28;20497;-45
2024/01/02 02:27:42;;;;;;;1.05;0.68;;;12.20;98.00;;;;;;5092052;28;20028;-44
2024/01/02 02:30:08;;;;;;;1.25;0.60;;;12.20;98.10;;;;;;5106892;28;20021;-44
2024/01/02 02:32:34;;;;;;;1.95;0.60;;;12.20;98.10;;;;;;5092883;28;20055;-44
2024/01/02 02:34:59;;;;;;;2.22;0.70;;;12.20;98.10;;;;;;5091256;28;20087;-44
2024/01/02 02:37:25;;;;;;;0.70;0.40;;;12.20;98.20;;;;;;5091482;28;20035;-45
2024/01/02 02:39:51;;;;;;;0.80;0.40;;;12.20;98.20;;;;;;5091143;28;20028;-45
2024/01/02 02:42:16;;;;;;;1.55;0.70;;;12.20;98.20;;;;;;5091608;28;20036;-45
2024/01/02 02:44:43;;;;;;;1.35;0.68;;;12.20;98.20;;;;;;5092692;28;20055;-45
2024/01/02 02:47:09;;;;;;;1.50;0.60;;;12.10;98.20;;;;;;5092145;28;20020;-44
2024/01/02 02:49:35;;;;;;;2.10;0.50;;;12.10;98.20;;;;;;5091671;28;20043;-45
2024/01/02 02:52:01;;;;;;;0.60;0.40;;;12.10;98.30;;;;;;5092035;28;20466;-45
2024/01/02 02:54:27;;;;;;;0.85;0.50;;;12.10;98.30;;;;;;5092298;28;20044;-44
2024/01/02 02:56:52;;;;;;;0.65;0.43;;;12.10;98.30;;;;;;5092132;28;20060;-45
2024/01/02 02:59:18;;;;;;;1.08;0.50;;;12.10;98.30;;;;;;5091148;28;20035;-45
2024/01/02 03:01:44;;;;;;;1.35;0.50;;;12.10;98.40;;;;;;5093071;28;20526;-45
2024/01/02 03:04:11;;;;;;;0.93;0.50;;;12.10;98.40;;;;;;5096192;28;20046;-45
2024/01/02 03:06:36;;;;;;;1.20;0.52;;;12.10;98.40;;;;;;5095650;28;20474;-45
2024/01/02 03:09:03;;;;;;;1.10;0.55;;;12.10;98.40;;;;;;5096016;28;20039;-45
2024/01/02 03:11:29;;;;;;;0.90;0.47;;;12.10;98.50;;;;;;5095911;28;20020;-44
2024/01/02 03:13:55;;;;;;;1.45;0.68;;;12.00;98.50;;;;;;5095069;28;20034;-44
2024/01/02 03:16:23;;;;;;;0.80;0.50;;;12.10;98.50;;;;;;5094660;28;20580;-45
2024/01/02 03:18:48;;;;;;;1.48;0.60;;;12.00;98.50;;;;;;5094980;28;20048;-45
2024/01/02 03:21:14;;;;;;;1.73;0.50;;;12.00;98.50;;;;;;5095702;28;20078;-45
2024/01/02 03:23:40;;;;;;;1.10;0.60;;;12.00;98.60;;;;;;5095082;28;20039;-45
2024/01/02 03:26:06;;;;;;;1.42;0.70;;;12.00;98.50;;;;;;5094484;28;20101;-45
2024/01/02 03:28:32;;;;;;;1.40;0.60;;;12.00;98.60;;;;;;5095169;28;20554;-45
2024/01/02 03:30:58;;;;;;;1.08;0.50;;;12.00;98.60;;;;;;5095528;28;20023;-45
2024/01/02 03:33:23;;;;;;;1.10;0.50;;;12.00;98.60;;;;;;5095100;28;20047;-44
2024/01/02 03:35:49;;;;;;;2.33;0.65;;;12.00;98.60;;;;;;5093347;28;20047;-45
2024/01/02 03:38:15;;;;;;;0.70;0.50;;;12.00;98.60;;;;;;5095057;28;20492;-45
2024/01/02 03:40:41;;;;;;;1.42;0.55;;;11.90;98.60;;;;;;5094640;28;20098;-45
2024/01/02 03:43:07;;;;;;;0.95;0.43;;;12.00;98.70;;;;;;5095417;28;20535;-45
2024/01/02 03:45:33;;;;;;;1.35;0.60;;;11.90;98.70;;;;;;5095280;28;20023;-45
2024/01/02 03:48:00;;;;;;;0.73;0.40;;;11.90;99.00;;;;;;5094264;28;20024;-44
2024/01/02 03:50:26;;;;;;;0.47;0.35;;;12.00;98.70;;;;;;5094846;28;20105;-45
2024/01/02 03:52:51;;;;;;;1.20;0.50;;;11.90;99.00;;;;;;5094506;28;20505;-45
2024/01/02 03:55:17;;;;;;;1.10;0.50;;;11.90;98.80;;;;;;5095185;28;20488;-45
2024/01/02 03:57:43;;;;;;;0.85;0.50;;;11.90;98.80;;;;;;5094959;28;20545;-45
2024/01/02 04:00:09;;;;;;;0.95;0.50;;;11.90;98.80;;;;;;5093888;28;20035;-44
2024/01/02 04:02:35;;;;;;;0.90;0.40;;;11.90;98.80;;;;;;5093784;28;20025;-45
2024/01/02 04:05:01;;;;;;;1.85;0.60;;;11.90;98.80;;;;;;5094254;28;20032;-45
2024/01/02 04:07:27;;;;;;;1.15;0.40;;;11.90;98.80;;;;;;5094917;28;20434;-45
2024/01/02 04:09:52;;;;;;;0.70;0.40;;;11.90;98.80;;;;;;5093508;28;20070;-45
2024/01/02 04:12:18;;;;;;;0.93;0.40;;;11.90;98.90;;;;;;5093343;28;20020;-44
2024/01/02 04:14:44;;;;;;;0.75;0.50;;;11.90;99.20;;;;;;5093767;28;20020;-44
2024/01/02 04:17:09;;;;;;;0.47;0.45;;;11.90;98.90;;;;;;5093511;28;20490;-45
2024/01/02 04:19:35;;;;;;;0.80;0.40;;;11.90;98.90;;;;;;5094471;28;20028;-45
2024/01/02 04:22:00;;;;;;;0.75;0.40;;;11.90;98.90;;;;;;5093763;28;20116;-45
2024/01/02 04:24:26;;;;;;;0.77;0.40;;;11.80;98.90;;;;;;5093297;28;20040;-45
2024/01/02 04:26:53;;;;;;;0.60;0.45;;;11.90;99.00;;;;;;5093186;28;20031;-45
2024/01/02 04:29:18;;;;;;;0.70;0.30;;;11.90;99.00;;;;;;5093603;28;20047;-45
2024/01/02 04:31:44;;;;;;;0.63;0.43;;;11.90;99.00;;;;;;5094176;28;20381;-45
2024/01/02 04:34:11;;;;;;;0.73;0.50;;;11.90;99.00;;;;;;5094271;28;20017;-44
2024/01/02 04:36:36;;;;;;;1.63;0.50;;;11.90;99.00;;;;;;5094433;28;20024;-45
2024/01/02 04:39:03;;;;;;;0.82;0.40;;;11.80;99.00;;;;;;5093866;28;20099;-45
2024/01/02 04:41:28;;;;;;;2.22;0.40;;;11.80;99.00;;;;;;5093130;28;20031;-45
2024/01/02 04:43:54;;;;;;;1.48;0.52;;;11.80;99.00;;;;;;5093014;28;20040;-44
2024/01/02 04:46:20;;;;;;;0.52;0.40;;;11.80;99.00;;;;;;5093526;28;20028;-45
2024/01/02 04:48:46;;;;;;;0.93;0.50;;;11.80;99.10;;;;;;5093806;28;20390;-45
2024/01/02 04:51:12;;;;;;;2.25;0.70;;;11.80;99.10;;;;;;5093616;28;20042;-45
2024/01/02 04:53:37;;;;;;;1.13;0.50;;;11.80;99.10;;;;;;5093243;28;20024;-45
2024/01/02 04:56:03;;;;;;;0.90;0.45;;;11.80;99.10;;;;;;5093137;28;20016;-45
2024/01/02 04:58:29;;;;;;;1.45;0.60;;;11.80;99.10;;;;;;5092788;28;20024;-45
2024/01/02 05:00:54;;;;;;;0.93;0.40;;;11.80;99.10;;;;;;5093050;28;20030;-45
2024/01/02 05:03:20;;;;;;;1.25;0.50;;;11.80;99.10;;;;;;5093086;28;20429;-45
2024/01/02 05:05:46;;;;;;;0.57;0.40;;;11.80;99.20;;;;;;5092590;28;20035;-45
2024/01/02 05:08:12;;;;;;;0.95;0.40;;;11.80;99.20;;;;;;5092371;28;20090;-45
2024/01/02 05:10:37;;;;;;;0.85;0.63;;;11.80;99.20;;;;;;5093045;28;20571;-45
2024/01/02 05:13:03;;;;;;;1.58;0.60;;;11.80;99.20;;;;;;5094046;28;20077;-45
2024/01/02 05:15:29;;;;;;;0.68;0.40;;;11.80;99.20;;;;;;5093625;28;20031;-44
2024/01/02 05:17:54;;;;;;;1.02;0.50;;;11.80;99.20;;;;;;5093970;28;20031;-46
2024/01/02 05:20:20;;;;;;;1.73;0.50;;;11.80;99.20;;;;;;5092362;28;20091;-45
2024/01/02 05:22:45;;;;;;;1.20;0.50;;;11.80;99.30;;;;;;5093025;28;20714;-44
2024/01/02 05:25:11;;;;;;;1.58;0.40;;;11.70;99.20;;;;;;5092682;28;20069;-44
2024/01/02 05:27:37;;;;;;;1.55;0.65;;;11.80;99.30;;;;;;5092295;28;20054;-45
2024/01/02 05:30:03;;;;;;;1.60;0.50;;;11.70;99.20;;;;;;5091093;28;20031;-44
2024/01/02 05:32:29;;;;;;;1.10;0.43;;;11.80;99.30;;;;;;5092013;28;20095;-45
2024/01/02 05:34:54;;;;;;;1.08;0.43;;;11.80;99.30;;;;;;5092109;28;20052;-45
2024/01/02 05:37:20;;;;;;;0.50;0.38;;;11.80;99.30;;;;;;5091975;28;20016;-45
2024/01/02 05:39:46;;;;;;;1.00;0.50;;;11.70;99.30;;;;;;5092348;28;20032;-45
2024/01/02 05:42:11;;;;;;;1.15;0.60;;;11.70;99.40;;;;;;5092567;28;20035;-44
2024/01/02 05:44:37;;;;;;;1.27;0.55;;;11.70;99.30;;;;;;5092489;28;20031;-44
2024/01/02 05:47:03;;;;;;;0.93;0.50;;;11.70;99.30;;;;;;5092034;28;20401;-45
2024/01/02 05:49:28;;;;;;;1.15;0.70;;;11.70;99.30;;;;;;5092105;28;20493;-45
2024/01/02 05:51:56;;;;;;;1.25;0.60;;;11.70;99.30;;;;;;5092784;28;20028;-46
2024/01/02 05:54:22;;;;;;;1.15;0.50;;;11.70;99.70;;;;;;5092532;28;20093;-45
2024/01/02 05:56:47;;;;;;;1.83;0.60;;;11.70;99.40;;;;;;5091614;28;20469;-45
2024/01/02 05:59:13;;;;;;;1.20;0.60;;;11.70;99.40;;;;;;5092790;28;20069;-45
2024/01/02 06:01:38;;;;;;;1.13;0.50;;;11.70;99.40;;;;;;5093120;28;20666;-45
2024/01/02 06:04:04;;;;;;;0.75;0.43;;;11.70;99.40;;;;;;5092555;28;20085;-45
2024/01/02 06:06:30;;;;;;;1.05;0.32;;;11.70;99.40;;;;;;5091429;28;20032;-45
2024/01/02 06:08:55;;;;;;;0.60;0.40;;;11.70;99.40;;;;;;5092230;28;20113;-45
2024/01/02 06:11:21;;;;;;;1.33;0.57;;;11.70;99.70;;;;;;5093142;28;20029;-45
2024/01/02 06:13:46;;;;;;;1.65;0.55;;;11.70;99.40;;;;;;5092012;28;20024;-45
2024/01/02 06:16:12;;;;;;;1.20;0.40;;;11.70;99.40;;;;;;5092039;28;20058;-45
2024/01/02 06:18:38;;;;;;;1.15;0.40;;;11.70;99.40;;;;;;5092428;28;20427;-45
2024/01/02 06:21:04;;;;;;;0.85;0.40;;;11.70;99.40;;;;;;5092264;28;20470;-45
2024/01/02 06:23:33;;;;;;;1.23;0.50;;;11.70;99.50;;;;;;5091829;28;20027;-45
2024/01/02 06:25:59;;;;;;;0.70;0.40;;;11.70;99.50;;;;;;5092054;28;20393;-45
2024/01/02 06:28:25;;;;;;;1.38;0.63;;;11.70;99.50;;;;;;5091665;28;20027;-45
2024/01/02 06:30:51;;;;;;;1.25;0.60;;;11.70;99.50;;;;;;5091584;28;20036;-45
2024/01/02 06:33:16;;;;;;;0.80;0.47;;;11.70;99.50;;;;;;5091795;28;20067;-45
2024/01/02 06:35:42;;;;;;;0.93;0.47;;;11.70;99.50;;;;;;5092471;28;20044;-45
2024/01/02 06:38:11;;;;;;;0.95;0.50;;;11.70;99.50;;;;;;5096943;28;20065;-45
2024/01/02 06:40:37;;;;;;;1.25;0.40;;;11.70;99.50;;;;;;5096852;28;20040;-45
2024/01/02 06:43:03;;;;;;;0.90;0.50;;;11.70;99.60;;;;;;5096461;28;20106;-45
2024/01/02 06:45:28;;;;;;;0.98;0.50;;;11.60;99.50;;;;;;5095927;28;20032;-44
2024/01/02 06:47:55;;;;;;;0.95;0.50;;;11.60;99.50;;;;;;5095710;28;20050;-45
2024/01/02 06:50:21;;;;;;;1.67;0.50;;;11.70;99.60;;;;;;5096750;28;20028;-45
2024/01/02 06:52:47;;;;;;;1.05;0.52;;;11.70;99.60;;;;;;5095336;28;20035;-45
2024/01/02 06:55:13;;;;;;;0.82;0.40;;;11.70;99.60;;;;;;5095524;28;20099;-45
2024/01/02 06:57:39;;;;;;;1.48;0.45;;;11.70;99.60;;;;;;5095264;28;20020;-45
2024/01/02 07:00:06;;;;;;;0.70;0.45;;;11.70;99.60;;;;;;5095330;28;20032;-45
2024/01/02 07:02:32;;;;;;;1.27;0.50;;;11.70;99.60;;;;;;5095422;28;20371;-45
2024/01/02 07:04:59;;;;;;;0.80;0.45;;;11.60;99.60;;;;;;5095085;28;20091;-45
2024/01/02 07:07:24;;;;;;;1.10;0.60;;;11.70;99.60;;;;;;5093889;28;20020;-45
2024/01/02 07:09:50;;;;;;;2.05;0.50;;;11.70;99.70;;;;;;5094602;28;20078;-45
2024/01/02 07:12:15;;;;;;;0.82;0.50;;;11.60;99.70;;;;;;5095731;28;20477;-45
2024/01/02 07:14:41;;;;;;;1.33;0.38;;;11.70;99.70;;;;;;5094723;28;20059;-45
2024/01/02 07:17:07;;;;;;;0.40;0.30;;;11.60;99.70;;;;;;5096052;28;20035;-45
2024/01/02 07:19:33;;;;;;;0.32;0.30;;;11.70;99.70;;;;;;5096048;28;20035;-45
2024/01/02 07:21:59;;;;;;;0.68;0.30;;;11.70;99.70;;;;;;5095319;28;20083;-45
2024/01/02 07:24:25;;;;;;;0.40;0.40;;;11.70;99.70;;;;;;5094857;28;20126;-45
2024/01/02 07:26:50;;;;;;;0.63;0.40;;;11.60;99.70;;;;;;5095593;28;20059;-45
2024/01/02 07:29:16;;;;;;;1.05;0.40;;;11.60;99.70;;;;;;5094407;28;20056;-45
2024/01/02 07:31:42;;;;;;;0.80;0.30;;;11.60;99.70;;;;;;5094387;28;20056;-45
2024/01/02 07:34:08;;;;;;;2.45;0.60;;;11.60;99.70;;;;;;5095114;28;20020;-45
2024/01/02 07:36:34;;;;;;;0.90;0.40;;;11.60;99.80;;;;;;5095608;28;20024;-45
2024/01/02 07:38:59;;;;;;;0.68;0.40;;;11.60;99.80;;;;;;5094348;28;20036;-45
2024/01/02 07:41:25;;;;;;;0.50;0.30;;;11.60;99.80;;;;;;5094397;28;20091;-45
2024/01/02 07:43:50;;;;;;;0.60;0.22;;;11.60;99.80;;;;;;5095680;28;20029;-45
2024/01/02 07:46:16;;;;;;;0.30;0.20;;;11.60;99.80;;;;;;5095020;28;20036;-45
2024/01/02 07:48:42;;;;;;;0.35;0.30;;;11.60;99.80;;;;;;5094933;28;20031;-45
2024/01/02 07:51:08;;;;;;;0.52;0.30;;;11.60;99.90;;;;;;5093982;28;20020;-44
2024/01/02 07:53:33;;;;;;;0.30;0.30;;;11.60;99.90;;;;;;5093924;28;20367;-45
2024/01/02 07:56:02;;;;;;;0.20;0.10;;;11.60;99.90;;;;;;5094491;28;20024;-45
2024/01/02 07:58:28;;;;;;;0.85;0.40;;;11.60;99.90;;;;;;5094593;28;20504;-45
2024/01/02 08:00:53;;;;;;;0.40;0.30;;;11.60;99.90;;;;;;5094825;28;20036;-44
2024/01/02 08:03:19;;;;;;;0.60;0.30;;;11.60;99.90;;;;;;5093976;28;20031;-45
2024/01/02 08:05:45;;;;;;;0.40;0.20;;;11.60;99.90;;;;;;5093076;28;20032;-45
2024/01/02 08:08:11;;;;;;;2.08;0.20;;;11.60;99.90;;;;;;5093667;28;20486;-45
2024/01/02 08:10:37;;;;;;;0.50;0.20;;;11.60;99.90;;;;;;5095541;28;20118;-45
2024/01/02 08:13:03;;;;;;;0.40;0.20;;;11.60;99.90;;;;;;5094291;28;20020;-45
2024/01/02 08:15:30;;;;;;;0.50;0.20;;;11.60;99.90;;;;;;5094036;28;20118;-45
2024/01/02 08:17:57;;;;;;;0.43;0.20;;;11.70;99.90;;;;;;5093868;28;20040;-45
2024/01/02 08:20:22;;;;;;;0.57;0.30;;;11.70;99.90;;;;;;5093698;28;20039;-45
2024/01/02 08:22:48;;;;;;;0.30;0.20;;;11.70;99.90;;;;;;5093727;28;20458;-45
2024/01/02 08:25:14;;;;;;;0.50;0.28;;;11.70;99.90;;;;;;5093923;28;20052;-45
2024/01/02 08:27:40;;;;;;;0.20;0.20;;;11.80;99.90;;;;;;5094008;28;20389;-45
2024/01/02 08:30:06;;;;;;;0.45;0.20;;;11.80;99.90;;;;;;5093436;28;20489;-45
2024/01/02 08:32:31;;;;;;;0.80;0.20;;;11.90;99.90;;;;;;5094193;28;20028;-45
2024/01/02 08:34:57;;;;;;;0.30;0.22;;;11.90;99.90;;;;;;5094580;28;20146;-45
2024/01/02 08:37:23;;;;;;;0.22;0.20;;;11.90;99.90;;;;;;5093146;28;20039;-45
2024/01/02 08:39:48;;;;;;;0.45;0.30;;;12.00;99.90;;;;;;5093507;28;20508;-45
2024/01/02 08:42:14;;;;;;;0.43;0.20;;;12.00;99.80;;;;;;5093615;28;20099;-45
2024/01/02 08:44:40;;;;;;;0.22;0.22;;;12.00;99.80;;;;;;5094177;28;20437;-45
2024/01/02 08:47:06;;;;;;;0.75;0.30;;;12.10;99.70;;;;;;5093498;28;20478;-45
2024/01/02 08:49:31;;;;;;;0.50;0.20;;;12.10;99.70;;;;;;5092793;28;20029;-45
2024/01/02 08:51:57;;;;;;;0.20;0.10;;;12.20;99.60;;;;;;5092800;28;20052;-45
2024/01/02 08:54:23;;;;;;;0.15;0.15;;;12.20;99.60;;;;;;5093035;28;20473;-45
2024/01/02 08:56:48;;;;;;;0.93;0.43;;;12.30;99.50;;;;;;5092735;28;20024;-45
2024/01/02 08:59:14;;;;;;;0.15;0.10;;;12.30;99.50;;;;;;5091629;28;20054;-45
2024/01/02 09:01:40;;;;;;;0.10;0.10;;;12.40;99.40;;;;;;5092821;28;20463;-45
2024/01/02 09:04:05;;;;;;;0.32;0.10;;;12.40;99.40;;;;;;5093229;28;20069;-44
2024/01/02 09:06:31;;;;;;;0.50;0.20;;;12.50;99.30;;;;;;5093792;28;20647;-45
2024/01/02 09:08:57;;;;;;;0.55;0.20;;;12.50;99.20;;;;;;5093373;28;20024;-45
2024/01/02 09:11:24;;;;;;;0.20;0.17;;;12.60;99.20;;;;;;5092815;28;20022;-45
2024/01/02 09:13:50;;;;;;;0.20;0.10;;;12.60;99.10;;;;;;5092538;28;20024;-45
2024/01/02 09:16:15;;;;;;;0.28;0.20;;;12.70;99.10;;;;;;5092234;28;20370;-45
2024/01/02 09:18:42;;;;;;;0.15;0.10;;;12.70;99.00;;;;;;5093292;28;20020;-45
2024/01/02 09:21:08;;;;;;;0.15;0.10;;;12.70;99.00;;;;;;5092681;28;20028;-45
2024/01/02 09:23:34;;;;;;;0.38;0.22;;;12.80;99.30;;;;;;5092892;28;20040;-44
2024/01/02 09:26:04;;;;;;;0.10;0.10;;;12.80;98.80;;;;;;5093013;28;20142;-44
2024/01/02 09:28:31;;;;;;;0.20;0.15;;;12.90;98.80;;;;;;5093528;28;20473;-44
2024/01/02 09:30:56;;;;;;;0.20;0.10;;;12.90;98.70;;;;;;5093083;28;20028;-43
2024/01/02 09:33:25;;;;;;;0.28;0.20;;;13.00;98.70;;;;;;5093230;28;20394;-45
2024/01/02 09:35:51;;;;;;;0.47;0.20;;;13.00;98.60;;;;;;5093324;28;20044;-45
2024/01/02 09:38:16;;;;;;;0.47;0.10;;;13.10;98.60;;;;;;5092674;28;20063;-45
2024/01/02 09:40:59;;;;;;;0.30;0.15;;;13.10;98.50;;;;;;5092293;28;20024;-45
2024/01/02 09:43:37;;;;;;;0.30;0.10;;;13.10;98.50;;;;;;5092542;28;20028;-45
2024/01/02 09:46:14;;;;;;;0.17;0.15;;;13.20;98.40;;;;;;5092470;28;20027;-45
2024/01/02 09:48:45;;;;;;;0.68;0.30;;;13.20;98.30;;;;;;5092593;28;20404;-45
2024/01/02 09:51:37;;;;;;;0.10;0.10;;;13.30;98.30;;;;;;5091729;28;20023;-45
2024/01/02 09:54:14;;;;;;;0.30;0.20;;;13.30;98.30;;;;;;5090728;28;20028;-45
2024/01/02 09:57:23;;;;;;;0.30;0.17;;;13.30;98.20;;;;;;5091751;28;20414;-45
2024/01/02 10:00:06;;;;;;;0.38;0.20;;;13.40;98.10;;;;;;5089726;28;20396;-45
2024/01/02 10:02:47;;;;;;;0.20;0.15;;;13.40;98.10;;;;;;5092280;28;20047;-45
2024/01/02 10:05:23;;;;;;;0.30;0.10;;;13.50;98.10;;;;;;5092375;28;20021;-45
2024/01/02 10:08:33;;;;;;;0.20;0.20;;;13.50;98.00;;;;;;5092941;28;20027;-44
2024/01/02 10:11:18;;;;;;;0.70;0.40;;;13.50;97.90;;;;;;5091984;28;20024;-45
2024/01/02 10:14:27;;;;;;;0.17;0.10;;;13.60;97.90;;;;;;5091916;28;20371;-45
2024/01/02 10:17:40;;;;;;;0.65;0.22;;;13.60;97.80;;;;;;5092687;28;20533;-45
2024/01/02 10:20:22;;;;;;;1.48;0.50;;;13.70;97.80;;;;;;5089340;28;20039;-45
2024/01/02 10:23:02;;;;;;;0.30;0.20;;;13.70;97.80;;;;;;5091514;28;20032;-45
2024/01/02 10:25:29;;;;;;;0.40;0.20;;;13.70;97.80;;;;;;5093261;28;20111;-43
2024/01/02 10:28:04;;;;;;;0.10;0.10;;;13.70;97.80;;;;;;5091931;28;20527;-45
2024/01/02 10:30:51;;;;;;;1.02;0.30;;;13.80;97.80;;;;;;5091227;28;20043;-45
2024/01/02 10:33:42;;;;;;;0.70;0.30;;;13.80;97.80;;;;;;5091551;28;20020;-45
2024/01/02 10:36:12;;;;;;;0.40;0.30;;;13.80;97.70;;;;;;5089990;28;20512;-45
2024/01/02 10:38:46;;;;;;;0.68;0.20;;;13.80;98.10;;;;;;5092495;28;20389;-45
2024/01/02 10:41:21;;;;;;;0.43;0.20;;;13.80;97.70;;;;;;5092555;28;20470;-45
2024/01/02 10:43:54;;;;;;;0.47;0.20;;;13.90;97.70;;;;;;5092585;28;20039;-45
2024/01/02 10:46:50;;;;;;;0.30;0.20;;;13.90;97.60;;;;;;5091470;28;20067;-45
2024/01/02 10:49:40;;;;;;;0.40;0.20;;;13.90;97.60;;;;;;5090915;28;20032;-45
2024/01/02 10:52:15;;;;;;;0.25;0.10;;;14.00;97.60;;;;;;5093022;28;20031;-45
2024/01/02 10:55:03;;;;;;;0.38;0.20;;;14.00;97.50;;;;;;5092398;28;20020;-45
2024/01/02 10:57:51;;;;;;;0.25;0.13;;;14.00;97.50;;;;;;5092553;28;20074;-44
2024/01/02 11:00:22;;;;;;;0.10;0.10;;;14.10;97.40;;;;;;5092618;28;20024;-45
2024/01/02 11:03:10;;;;;;;0.55;0.17;;;14.00;97.30;;;;;;5092474;28;20063;-45
2024/01/02 11:05:39;;;;;;;0.40;0.20;;;14.10;97.30;;;;;;5092285;28;20032;-45
2024/01/02 11:08:25;;;;;;;0.70;0.20;;;14.20;97.30;;;;;;5091348;28;20028;-45
2024/01/02 11:11:01;;;;;;;0.30;0.20;;;14.20;97.30;;;;;;5091438;28;20028;-44
2024/01/02 11:13:27;;;;;;;0.55;0.15;;;14.20;97.20;;;;;;5091189;28;20024;-45
2024/01/02 11:15:58;;;;;;;0.20;0.10;;;14.30;97.20;;;;;;5091951;28;20551;-45
2024/01/02 11:18:27;;;;;;;0.38;0.20;;;14.30;97.20;;;;;;5090873;28;20032;-43
2024/01/02 11:21:30;;;;;;;0.30;0.10;;;14.30;97.10;;;;;;5091778;28;20502;-45
2024/01/02 11:24:00;;;;;;;0.40;0.13;;;14.40;97.10;;;;;;5094732;28;20497;-45
2024/01/02 11:26:29;;;;;;;0.43;0.15;;;14.30;97.10;;;;;;5096047;28;20359;-45
2024/01/02 11:28:58;;;;;;;0.08;0.05;;;14.30;97.00;;;;;;5095159;28;20027;-44
2024/01/02 11:31:29;;;;;;;0.10;0.08;;;14.40;97.10;;;;;;5095461;28;20114;-45
2024/01/02 11:34:43;;;;;;;0.30;0.10;;;14.50;97.20;;;;;;5095617;28;20016;-44
2024/01/02 11:37:18;;;;;;;0.55;0.20;;;14.50;97.30;;;;;;5094602;28;20020;-45
2024/01/02 11:40:03;;;;;;;0.10;0.05;;;14.50;97.30;;;;;;5094750;28;20476;-45
2024/01/02 11:42:48;;;;;;;0.20;0.10;;;14.60;97.30;;;;;;5095356;28;20085;-45
2024/01/02 11:45:20;;;;;;;0.17;0.08;;;14.60;97.30;;;;;;5094903;28;20024;-44
2024/01/02 11:48:06;;;;;;;0.10;0.10;;;14.60;97.20;;;;;;5094245;28;20024;-43
2024/01/02 11:50:51;;;;;;;0.08;0.00;;;14.70;97.10;;;;;;5095506;28;20481;-44
2024/01/02 11:53:23;;;;;;;0.08;0.08;;;14.80;97.10;;;;;;5094247;28;20032;-44
2024/01/02 11:55:57;;;;;;;0.20;0.10;;;14.80;97.00;;;;;;5094459;28;20028;-41
2024/01/02 11:58:52;;;;;;;0.45;0.13;;;14.80;96.90;;;;;;5094749;28;20012;-45
2024/01/02 12:01:42;;;;;;;0.10;0.08;;;14.90;96.90;;;;;;5091387;28;20560;-45
2024/01/02 12:04:45;;;;;;;0.35;0.17;;;14.90;96.80;;;;;;5094711;28;20031;-45
2024/01/02 12:07:14;;;;;;;0.10;0.00;;;14.90;96.70;;;;;;5093763;28;20100;-45
2024/01/02 12:09:43;;;;;;;0.30;0.20;;;15.00;96.70;;;;;;5093945;28;20065;-45
2024/01/02 12:12:31;;;;;;;0.10;0.10;;;15.00;96.60;;;;;;5094509;28;20027;-44
2024/01/02 12:15:23;;;;;;;0.00;0.00;;;15.00;96.60;;;;;;5093882;28;20057;-44
2024/01/02 12:18:05;;;;;;;0.10;0.10;;;15.10;96.50;;;;;;5094336;28;20032;-45
2024/01/02 12:20:45;;;;;;;0.25;0.13;;;15.10;96.50;;;;;;5094473;28;20089;-41
2024/01/02 12:23:13;;;;;;;0.30;0.20;;;15.10;96.40;;;;;;5095249;28;20047;-45
2024/01/02 12:25:42;;;;;;;0.05;0.00;;;15.10;96.40;;;;;;5094497;28;20016;-45
2024/01/02 12:28:09;;;;;;;0.28;0.25;;;15.20;96.40;;;;;;5093875;28;20027;-43
2024/01/02 12:30:44;;;;;;;1.85;0.30;;;15.20;96.30;;;;;;5094571;28;20024;-44
2024/01/02 12:33:24;;;;;;;0.68;0.40;;;15.20;96.30;;;;;;5094362;28;20032;-45
2024/01/02 12:36:25;;;;;;;0.75;0.47;;;15.20;96.20;;;;;;5094180;28;20047;-44
2024/01/02 12:38:52;;;;;;;0.70;0.38;;;15.30;96.30;;;;;;5094571;28;20496;-45
2024/01/02 12:41:33;;;;;;;0.40;0.30;;;15.30;96.20;;;;;;5093050;28;20072;-45
2024/01/02 12:43:59;;;;;;;0.68;0.40;;;15.30;96.20;;;;;;5094055;28;20394;-45
2024/01/02 12:46:32;;;;;;;0.60;0.32;;;15.30;96.20;;;;;;5093014;28;20470;-45
2024/01/02 12:49:10;;;;;;;0.40;0.40;;;15.30;96.10;;;;;;5092786;28;20378;-42
2024/01/02 12:51:37;;;;;;;0.63;0.43;;;15.30;96.10;;;;;;5094118;28;20120;-45
2024/01/02 12:54:05;;;;;;;0.65;0.30;;;15.30;96.10;;;;;;5093581;28;20493;-44
2024/01/02 12:56:34;;;;;;;0.88;0.40;;;15.30;96.10;;;;;;5094248;28;20092;-45
2024/01/02 12:59:06;;;;;;;0.63;0.30;;;15.30;96.10;;;;;;5093847;28;20028;-45